sensor_id;sensor_type;location;lat;lon;timestamp;pressure;altitude;pressure_sealevel;temperature;humidity
50434;BME280;36361;38.954;-9.002;2023-05-22T00:00:47;100202.09;;;18.29;100.00
50434;BME280;36361;38.954;-9.002;2023-05-22T00:01:48;100203.16;;;18.43;100.00
50434;BME280;36361;38.954;-9.002;2023-05-22T00:02:49;100200.41;;;18.48;100.00
50434;BME280;36361;38.954;-9.002;2023-05-22T00:03:49;100199.59;;;18.48;100.00
50434;BME280;36361;38.954;-9.002;2023-05-22T00:04:50;100195.19;;;18.27;100.00
50434;BME280;36361;38.954;-9.002;2023-05-22T00:05:51;100201.53;;;18.27;100.00
50434;BME280;36361;38.954;-9.002;2023-05-22T00:06:52;100203.97;;;18.44;100.00
50434;BME280;36361;38.954;-9.002;2023-05-22T00:07:53;100205.09;;;18.48;100.00
50434;BME280;36361;38.954;-9.002;2023-05-22T00:08:53;100210.88;;;18.41;100.00
50434;BME280;36361;38.954;-9.002;2023-05-22T00:09:54;100206.44;;;18.45;100.00
50434;BME280;36361;38.954;-9.002;2023-05-22T00:10:55;100211.69;;;18.52;100.00
50434;BME280;36361;38.954;-9.002;2023-05-22T00:11:56;100202.03;;;18.60;100.00
50434;BME280;36361;38.954;-9.002;2023-05-22T00:12:57;100203.91;;;18.64;100.00
50434;BME280;36361;38.954;-9.002;2023-05-22T00:13:58;100207.03;;;18.42;100.00
50434;BME280;36361;38.954;-9.002;2023-05-22T00:14:58;100206.47;;;18.51;100.00
50434;BME280;36361;38.954;-9.002;2023-05-22T00:15:59;100202.03;;;18.44;100.00
50434;BME280;36361;38.954;-9.002;2023-05-22T00:17:00;100215.81;;;18.50;100.00
50434;BME280;36361;38.954;-9.002;2023-05-22T00:18:01;100208.66;;;18.43;100.00
50434;BME280;36361;38.954;-9.002;2023-05-22T00:19:01;100202.91;;;18.40;100.00
50434;BME280;36361;38.954;-9.002;2023-05-22T00:20:03;100206.47;;;18.51;100.00
50434;BME280;36361;38.954;-9.002;2023-05-22T00:21:10;100210.28;;;18.55;100.00
50434;BME280;36361;38.954;-9.002;2023-05-22T00:22:10;100207.56;;;18.50;100.00
50434;BME280;36361;38.954;-9.002;2023-05-22T00:23:12;100205.41;;;18.21;100.00
50434;BME280;36361;38.954;-9.002;2023-05-22T00:24:13;100208.72;;;18.08;100.00
50434;BME280;36361;38.954;-9.002;2023-05-22T00:25:14;100208.16;;;18.16;100.00
50434;BME280;36361;38.954;-9.002;2023-05-22T00:26:19;100207.63;;;18.14;100.00
50434;BME280;36361;38.954;-9.002;2023-05-22T00:27:21;100211.75;;;17.91;100.00
50434;BME280;36361;38.954;-9.002;2023-05-22T00:28:22;100205.97;;;18.08;100.00
50434;BME280;36361;38.954;-9.002;2023-05-22T00:29:22;100201.56;;;18.02;100.00
50434;BME280;36361;38.954;-9.002;2023-05-22T00:30:26;100202.13;;;17.88;100.00
50434;BME280;36361;38.954;-9.002;2023-05-22T00:31:27;100203.22;;;17.77;100.00
50434;BME280;36361;38.954;-9.002;2023-05-22T00:32:28;100202.06;;;17.58;100.00
50434;BME280;36361;38.954;-9.002;2023-05-22T00:33:29;100202.31;;;17.51;100.00
50434;BME280;36361;38.954;-9.002;2023-05-22T00:34:30;100195.44;;;17.44;100.00
50434;BME280;36361;38.954;-9.002;2023-05-22T00:35:31;100201.19;;;17.37;100.00
50434;BME280;36361;38.954;-9.002;2023-05-22T00:36:31;100204.59;;;17.70;100.00
50434;BME280;36361;38.954;-9.002;2023-05-22T00:37:33;100205.09;;;17.67;100.00
50434;BME280;36361;38.954;-9.002;2023-05-22T00:38:34;100201.53;;;17.56;100.00
50434;BME280;36361;38.954;-9.002;2023-05-22T00:39:37;100200.44;;;17.72;100.00
50434;BME280;36361;38.954;-9.002;2023-05-22T00:40:38;100209.28;;;17.79;100.00
50434;BME280;36361;38.954;-9.002;2023-05-22T00:41:39;100204.28;;;17.66;100.00
50434;BME280;36361;38.954;-9.002;2023-05-22T00:42:43;100205.94;;;17.67;100.00
50434;BME280;36361;38.954;-9.002;2023-05-22T00:43:44;100201.50;;;17.51;100.00
50434;BME280;36361;38.954;-9.002;2023-05-22T00:44:45;100202.56;;;17.29;100.00
50434;BME280;36361;38.954;-9.002;2023-05-22T00:45:45;100202.31;;;17.41;100.00
50434;BME280;36361;38.954;-9.002;2023-05-22T00:46:47;100202.59;;;17.55;100.00
50434;BME280;36361;38.954;-9.002;2023-05-22T00:47:48;100203.41;;;17.55;100.00
50434;BME280;36361;38.954;-9.002;2023-05-22T00:48:50;100203.72;;;17.49;100.00
50434;BME280;36361;38.954;-9.002;2023-05-22T00:49:52;100194.91;;;17.52;100.00
50434;BME280;36361;38.954;-9.002;2023-05-22T00:50:54;100202.59;;;17.45;100.00
50434;BME280;36361;38.954;-9.002;2023-05-22T00:51:59;100194.63;;;17.53;100.00
50434;BME280;36361;38.954;-9.002;2023-05-22T00:53:00;100190.22;;;17.47;100.00
50434;BME280;36361;38.954;-9.002;2023-05-22T00:54:01;100193.22;;;17.46;100.00
50434;BME280;36361;38.954;-9.002;2023-05-22T00:55:03;100197.38;;;17.58;100.00
50434;BME280;36361;38.954;-9.002;2023-05-22T00:56:04;100189.41;;;17.57;100.00
50434;BME280;36361;38.954;-9.002;2023-05-22T00:57:06;100194.84;;;17.37;100.00
50434;BME280;36361;38.954;-9.002;2023-05-22T00:58:12;100190.19;;;17.32;100.00
50434;BME280;36361;38.954;-9.002;2023-05-22T00:59:14;100196.50;;;17.32;100.00
50434;BME280;36361;38.954;-9.002;2023-05-22T01:00:17;100194.59;;;17.33;100.00
50434;BME280;36361;38.954;-9.002;2023-05-22T01:01:19;100185.50;;;17.27;100.00
50434;BME280;36361;38.954;-9.002;2023-05-22T01:02:20;100184.41;;;17.33;100.00
50434;BME280;36361;38.954;-9.002;2023-05-22T01:03:21;100182.75;;;17.27;100.00
50434;BME280;36361;38.954;-9.002;2023-05-22T01:04:26;100184.91;;;17.10;100.00
50434;BME280;36361;38.954;-9.002;2023-05-22T01:05:27;100184.66;;;17.27;100.00
50434;BME280;36361;38.954;-9.002;2023-05-22T01:06:27;100185.50;;;17.27;100.00
50434;BME280;36361;38.954;-9.002;2023-05-22T01:07:32;100175.63;;;17.31;100.00
50434;BME280;36361;38.954;-9.002;2023-05-22T01:08:33;100187.72;;;17.30;100.00
50434;BME280;36361;38.954;-9.002;2023-05-22T01:09:34;100181.91;;;17.27;100.00
50434;BME280;36361;38.954;-9.002;2023-05-22T01:10:38;100187.72;;;17.35;100.00
50434;BME280;36361;38.954;-9.002;2023-05-22T01:11:42;100194.31;;;17.34;100.00
50434;BME280;36361;38.954;-9.002;2023-05-22T01:19:58;100184.91;;;17.10;100.00
50434;BME280;36361;38.954;-9.002;2023-05-22T01:22:40;100188.53;;;17.26;100.00
50434;BME280;36361;38.954;-9.002;2023-05-22T01:25:55;100181.66;;;17.33;100.00
50434;BME280;36361;38.954;-9.002;2023-05-22T01:28:38;100183.91;;;17.47;100.00
50434;BME280;36361;38.954;-9.002;2023-05-22T01:29:47;100188.59;;;17.56;100.00
50434;BME280;36361;38.954;-9.002;2023-05-22T01:31:00;100181.16;;;17.52;100.00
50434;BME280;36361;38.954;-9.002;2023-05-22T01:32:03;100187.72;;;17.35;100.00
50434;BME280;36361;38.954;-9.002;2023-05-22T01:33:05;100186.63;;;17.31;100.00
50434;BME280;36361;38.954;-9.002;2023-05-22T01:34:11;100182.75;;;17.22;100.00
50434;BME280;36361;38.954;-9.002;2023-05-22T01:35:15;100186.28;;;17.18;100.00
50434;BME280;36361;38.954;-9.002;2023-05-22T01:36:20;100184.91;;;17.05;100.00
50434;BME280;36361;38.954;-9.002;2023-05-22T01:37:24;100190.13;;;17.01;100.00
50434;BME280;36361;38.954;-9.002;2023-05-22T01:38:26;100188.09;;;16.82;100.00
50434;BME280;36361;38.954;-9.002;2023-05-22T01:39:28;100190.88;;;16.87;100.00
50434;BME280;36361;38.954;-9.002;2023-05-22T01:40:30;100195.00;;;16.89;100.00
50434;BME280;36361;38.954;-9.002;2023-05-22T01:41:32;100188.91;;;16.82;100.00
50434;BME280;36361;38.954;-9.002;2023-05-22T01:42:33;100191.38;;;16.73;100.00
50434;BME280;36361;38.954;-9.002;2023-05-22T01:43:35;100196.03;;;16.73;100.00
50434;BME280;36361;38.954;-9.002;2023-05-22T01:44:36;100196.88;;;16.78;100.00
50434;BME280;36361;38.954;-9.002;2023-05-22T01:45:37;100196.88;;;16.73;100.00
50434;BME280;36361;38.954;-9.002;2023-05-22T01:46:38;100197.38;;;16.70;100.00
50434;BME280;36361;38.954;-9.002;2023-05-22T01:47:39;100188.53;;;16.63;100.00
50434;BME280;36361;38.954;-9.002;2023-05-22T01:48:39;100189.41;;;16.69;100.00
50434;BME280;36361;38.954;-9.002;2023-05-22T01:49:43;100183.97;;;16.74;100.00
50434;BME280;36361;38.954;-9.002;2023-05-22T01:50:46;100187.03;;;16.88;100.00
50434;BME280;36361;38.954;-9.002;2023-05-22T01:54:15;100165.28;;;16.81;100.00
50434;BME280;36361;38.954;-9.002;2023-05-22T01:55:24;100167.47;;;16.79;100.00
50434;BME280;36361;38.954;-9.002;2023-05-22T01:56:34;100168.59;;;16.83;100.00
50434;BME280;36361;38.954;-9.002;2023-05-22T01:57:46;100165.56;;;16.74;100.00
50434;BME280;36361;38.954;-9.002;2023-05-22T02:00:08;100164.19;;;16.77;100.00
50434;BME280;36361;38.954;-9.002;2023-05-22T02:01:18;100169.78;;;17.02;100.00
50434;BME280;36361;38.954;-9.002;2023-05-22T02:02:20;100175.56;;;17.11;100.00
50434;BME280;36361;38.954;-9.002;2023-05-22T02:03:26;100178.31;;;17.16;100.00
50434;BME280;36361;38.954;-9.002;2023-05-22T02:04:30;100171.19;;;17.25;100.00
50434;BME280;36361;38.954;-9.002;2023-05-22T02:05:32;100171.75;;;17.27;100.00
50434;BME280;36361;38.954;-9.002;2023-05-22T02:06:36;100172.25;;;17.09;100.00
50434;BME280;36361;38.954;-9.002;2023-05-22T02:07:39;100174.69;;;17.00;100.00
50434;BME280;36361;38.954;-9.002;2023-05-22T02:08:42;100178.94;;;16.66;100.00
50434;BME280;36361;38.954;-9.002;2023-05-22T02:09:45;100178.13;;;16.65;100.00
50434;BME280;36361;38.954;-9.002;2023-05-22T02:10:48;100180.78;;;16.50;100.00
50434;BME280;36361;38.954;-9.002;2023-05-22T02:11:50;100176.97;;;16.61;100.00
50434;BME280;36361;38.954;-9.002;2023-05-22T02:12:51;100178.94;;;16.66;100.00
50434;BME280;36361;38.954;-9.002;2023-05-22T02:13:52;100179.72;;;16.56;100.00
50434;BME280;36361;38.954;-9.002;2023-05-22T02:14:54;100176.66;;;16.47;100.00
50434;BME280;36361;38.954;-9.002;2023-05-22T02:15:56;100174.69;;;16.43;100.00
50434;BME280;36361;38.954;-9.002;2023-05-22T02:16:56;100174.09;;;16.36;100.00
50434;BME280;36361;38.954;-9.002;2023-05-22T02:18:00;100167.78;;;16.35;100.00
50434;BME280;36361;38.954;-9.002;2023-05-22T02:19:07;100167.81;;;16.40;100.00
50434;BME280;36361;38.954;-9.002;2023-05-22T02:20:13;100167.00;;;16.40;100.00
50434;BME280;36361;38.954;-9.002;2023-05-22T02:21:17;100165.94;;;16.51;100.00
50434;BME280;36361;38.954;-9.002;2023-05-22T02:22:23;100165.91;;;16.41;100.00
50434;BME280;36361;38.954;-9.002;2023-05-22T02:23:25;100170.34;;;16.47;100.00
50434;BME280;36361;38.954;-9.002;2023-05-22T02:24:33;100170.94;;;16.59;100.00
50434;BME280;36361;38.954;-9.002;2023-05-22T02:25:36;100164.88;;;16.57;100.00
50434;BME280;36361;38.954;-9.002;2023-05-22T02:26:37;100167.91;;;16.61;100.00
50434;BME280;36361;38.954;-9.002;2023-05-22T02:27:43;100169.41;;;16.73;100.00
50434;BME280;36361;38.954;-9.002;2023-05-22T02:28:44;100167.66;;;16.62;100.00
50434;BME280;36361;38.954;-9.002;2023-05-22T02:29:45;100166.00;;;16.61;100.00
50434;BME280;36361;38.954;-9.002;2023-05-22T02:30:46;100171.50;;;16.61;100.00
50434;BME280;36361;38.954;-9.002;2023-05-22T02:31:46;100175.09;;;16.67;100.00
50434;BME280;36361;38.954;-9.002;2023-05-22T02:32:47;100175.88;;;16.62;100.00
50434;BME280;36361;38.954;-9.002;2023-05-22T02:33:48;100170.94;;;16.59;100.00
50434;BME280;36361;38.954;-9.002;2023-05-22T02:34:49;100170.38;;;16.57;100.00
50434;BME280;36361;38.954;-9.002;2023-05-22T02:35:49;100170.09;;;16.59;100.00
50434;BME280;36361;38.954;-9.002;2023-05-22T02:36:50;100170.78;;;16.76;100.00
50434;BME280;36361;38.954;-9.002;2023-05-22T02:37:51;100170.22;;;16.79;100.00
50434;BME280;36361;38.954;-9.002;2023-05-22T02:38:52;100175.44;;;16.81;100.00
50434;BME280;36361;38.954;-9.002;2023-05-22T02:39:55;100172.97;;;16.74;100.00
50434;BME280;36361;38.954;-9.002;2023-05-22T02:40:56;100173.53;;;16.76;100.00
50434;BME280;36361;38.954;-9.002;2023-05-22T02:41:56;100177.53;;;16.58;100.00
50434;BME280;36361;38.954;-9.002;2023-05-22T02:42:57;100176.31;;;16.39;100.00
50434;BME280;36361;38.954;-9.002;2023-05-22T02:43:58;100172.03;;;16.58;100.00
50434;BME280;36361;38.954;-9.002;2023-05-22T02:45:02;100175.38;;;16.65;100.00
50434;BME280;36361;38.954;-9.002;2023-05-22T02:46:03;100165.44;;;16.59;100.00
50434;BME280;36361;38.954;-9.002;2023-05-22T02:47:04;100169.28;;;16.58;100.00
50434;BME280;36361;38.954;-9.002;2023-05-22T02:48:05;100174.69;;;16.43;100.00
50434;BME280;36361;38.954;-9.002;2023-05-22T02:49:06;100173.03;;;16.42;100.00
50434;BME280;36361;38.954;-9.002;2023-05-22T02:50:07;100169.16;;;16.33;100.00
50434;BME280;36361;38.954;-9.002;2023-05-22T02:51:08;100164.56;;;16.48;100.00
50434;BME280;36361;38.954;-9.002;2023-05-22T02:52:09;100160.47;;;16.51;100.00
50434;BME280;36361;38.954;-9.002;2023-05-22T02:53:10;100160.44;;;16.46;100.00
50434;BME280;36361;38.954;-9.002;2023-05-22T02:54:10;100169.00;;;16.60;100.00
50434;BME280;36361;38.954;-9.002;2023-05-22T02:55:11;100164.34;;;16.60;100.00
50434;BME280;36361;38.954;-9.002;2023-05-22T02:56:12;100165.41;;;16.54;100.00
50434;BME280;36361;38.954;-9.002;2023-05-22T02:57:12;100167.31;;;16.54;100.00
50434;BME280;36361;38.954;-9.002;2023-05-22T02:58:13;100167.59;;;16.52;100.00
50434;BME280;36361;38.954;-9.002;2023-05-22T02:59:14;100166.53;;;16.63;100.00
50434;BME280;36361;38.954;-9.002;2023-05-22T03:00:16;100175.44;;;16.81;100.00
50434;BME280;36361;38.954;-9.002;2023-05-22T03:01:17;100169.09;;;16.70;100.00
50434;BME280;36361;38.954;-9.002;2023-05-22T03:02:17;100184.13;;;16.62;100.00
50434;BME280;36361;38.954;-9.002;2023-05-22T03:03:19;100178.63;;;16.62;100.00
50434;BME280;36361;38.954;-9.002;2023-05-22T03:04:19;100175.34;;;16.60;100.00
50434;BME280;36361;38.954;-9.002;2023-05-22T03:05:20;100173.59;;;16.44;100.00
50434;BME280;36361;38.954;-9.002;2023-05-22T03:06:21;100169.25;;;16.53;100.00
50434;BME280;36361;38.954;-9.002;2023-05-22T03:07:25;100167.63;;;16.57;100.00
50434;BME280;36361;38.954;-9.002;2023-05-22T03:08:26;100167.09;;;16.55;100.00
50434;BME280;36361;38.954;-9.002;2023-05-22T03:09:31;100172.00;;;16.53;100.00
50434;BME280;36361;38.954;-9.002;2023-05-22T03:10:32;100169.19;;;16.43;100.00
50434;BME280;36361;38.954;-9.002;2023-05-22T03:11:34;100171.66;;;16.44;100.00
50434;BME280;36361;38.954;-9.002;2023-05-22T03:12:35;100183.56;;;16.55;100.00
50434;BME280;36361;38.954;-9.002;2023-05-22T03:13:35;100178.00;;;16.45;100.00
50434;BME280;36361;38.954;-9.002;2023-05-22T03:14:36;100178.59;;;16.52;100.00
50434;BME280;36361;38.954;-9.002;2023-05-22T03:15:37;100183.56;;;16.55;100.00
50434;BME280;36361;38.954;-9.002;2023-05-22T03:16:45;100186.88;;;16.57;100.00
50434;BME280;36361;38.954;-9.002;2023-05-22T03:17:46;100187.41;;;16.59;100.00
50434;BME280;36361;38.954;-9.002;2023-05-22T03:18:49;100178.81;;;16.45;100.00
50434;BME280;36361;38.954;-9.002;2023-05-22T03:19:50;100188.47;;;16.48;100.00
50434;BME280;36361;38.954;-9.002;2023-05-22T03:20:51;100183.75;;;16.38;100.00
50434;BME280;36361;38.954;-9.002;2023-05-22T03:21:52;100181.19;;;16.27;100.00
50434;BME280;36361;38.954;-9.002;2023-05-22T03:22:52;100181.84;;;16.44;100.00
50434;BME280;36361;38.954;-9.002;2023-05-22T03:23:53;100178.25;;;16.38;100.00
50434;BME280;36361;38.954;-9.002;2023-05-22T03:24:54;100181.88;;;16.54;100.00
50434;BME280;36361;38.954;-9.002;2023-05-22T03:25:55;100187.38;;;16.49;100.00
50434;BME280;36361;38.954;-9.002;2023-05-22T03:27:00;100178.00;;;16.45;100.00
50434;BME280;36361;38.954;-9.002;2023-05-22T03:28:10;100181.31;;;16.47;100.00
50434;BME280;36361;38.954;-9.002;2023-05-22T03:29:13;100182.66;;;16.44;100.00
50434;BME280;36361;38.954;-9.002;2023-05-22T03:30:15;100179.97;;;16.55;100.00
50434;BME280;36361;38.954;-9.002;2023-05-22T03:31:26;100181.31;;;16.47;100.00
50434;BME280;36361;38.954;-9.002;2023-05-22T03:32:52;100179.94;;;16.49;100.00
50434;BME280;36361;38.954;-9.002;2023-05-22T03:33:54;100175.28;;;16.50;100.00
50434;BME280;36361;38.954;-9.002;2023-05-22T03:34:55;100173.09;;;16.52;100.00
50434;BME280;36361;38.954;-9.002;2023-05-22T03:35:55;100181.38;;;16.57;100.00
50434;BME280;36361;38.954;-9.002;2023-05-22T03:36:56;100186.38;;;16.65;100.00
50434;BME280;36361;38.954;-9.002;2023-05-22T03:37:57;100166.63;;;16.68;100.00
50434;BME280;36361;38.954;-9.002;2023-05-22T03:38:58;100178.78;;;16.88;100.00
50434;BME280;36361;38.954;-9.002;2023-05-22T03:39:59;100182.66;;;16.92;100.00
50434;BME280;36361;38.954;-9.002;2023-05-22T03:41:03;100185.41;;;16.97;100.00
50434;BME280;36361;38.954;-9.002;2023-05-22T03:42:04;100186.00;;;17.04;100.00
50434;BME280;36361;38.954;-9.002;2023-05-22T03:43:05;100174.97;;;16.99;100.00
50434;BME280;36361;38.954;-9.002;2023-05-22T03:44:06;100182.34;;;16.88;100.00
50434;BME280;36361;38.954;-9.002;2023-05-22T03:45:07;100178.22;;;16.86;100.00
50434;BME280;36361;38.954;-9.002;2023-05-22T03:46:08;100179.84;;;16.82;100.00
50434;BME280;36361;38.954;-9.002;2023-05-22T03:47:12;100173.81;;;16.80;100.00
50434;BME280;36361;38.954;-9.002;2023-05-22T03:48:13;100181.38;;;16.62;100.00
50434;BME280;36361;38.954;-9.002;2023-05-22T03:49:13;100177.81;;;16.62;100.00
50434;BME280;36361;38.954;-9.002;2023-05-22T03:50:14;100175.34;;;16.60;100.00
50434;BME280;36361;38.954;-9.002;2023-05-22T03:51:15;100173.97;;;16.63;100.00
50434;BME280;36361;38.954;-9.002;2023-05-22T03:52:16;100171.81;;;16.65;100.00
50434;BME280;36361;38.954;-9.002;2023-05-22T03:53:16;100176.47;;;16.64;100.00
50434;BME280;36361;38.954;-9.002;2023-05-22T03:54:17;100155.31;;;16.65;100.00
50434;BME280;36361;38.954;-9.002;2023-05-22T03:55:18;100170.91;;;16.54;100.00
50434;BME280;36361;38.954;-9.002;2023-05-22T03:56:18;100171.16;;;16.47;100.00
50434;BME280;36361;38.954;-9.002;2023-05-22T03:57:21;100174.75;;;16.53;100.00
50434;BME280;36361;38.954;-9.002;2023-05-22T03:58:22;100176.66;;;16.47;100.00
50434;BME280;36361;38.954;-9.002;2023-05-22T03:59:29;100174.72;;;16.48;100.00
50434;BME280;36361;38.954;-9.002;2023-05-22T04:00:30;100170.38;;;16.57;100.00
50434;BME280;36361;38.954;-9.002;2023-05-22T04:01:34;100179.19;;;16.59;100.00
50434;BME280;36361;38.954;-9.002;2023-05-22T04:02:41;100163.31;;;16.24;100.00
50434;BME280;36361;38.954;-9.002;2023-05-22T04:03:44;100165.84;;;16.31;100.00
50434;BME280;36361;38.954;-9.002;2023-05-22T04:04:45;100164.13;;;16.19;100.00
50434;BME280;36361;38.954;-9.002;2023-05-22T04:05:46;100174.56;;;16.23;100.00
50434;BME280;36361;38.954;-9.002;2023-05-22T04:06:47;100175.94;;;16.20;100.00
50434;BME280;36361;38.954;-9.002;2023-05-22T04:07:49;100181.59;;;16.08;100.00
50434;BME280;36361;38.954;-9.002;2023-05-22T04:08:50;100172.31;;;16.09;100.00
50434;BME280;36361;38.954;-9.002;2023-05-22T04:09:50;100172.84;;;16.11;100.00
50434;BME280;36361;38.954;-9.002;2023-05-22T04:10:51;100172.47;;;15.98;100.00
50434;BME280;36361;38.954;-9.002;2023-05-22T04:11:53;100174.88;;;15.89;100.00
50434;BME280;36361;38.954;-9.002;2023-05-22T04:12:56;100171.69;;;16.02;100.00
50434;BME280;36361;38.954;-9.002;2023-05-22T04:14:02;100166.69;;;15.94;100.00
50434;BME280;36361;38.954;-9.002;2023-05-22T04:15:03;100165.56;;;15.90;100.00
50434;BME280;36361;38.954;-9.002;2023-05-22T04:16:04;100179.88;;;15.97;100.00
50434;BME280;36361;38.954;-9.002;2023-05-22T04:17:05;100171.72;;;16.07;100.00
50434;BME280;36361;38.954;-9.002;2023-05-22T04:18:06;100175.47;;;15.91;100.00
50434;BME280;36361;38.954;-9.002;2023-05-22T04:19:07;100171.44;;;16.04;100.00
50434;BME280;36361;38.954;-9.002;2023-05-22T04:20:09;100168.88;;;15.92;100.00
50434;BME280;36361;38.954;-9.002;2023-05-22T04:21:10;100174.28;;;15.82;100.00
50434;BME280;36361;38.954;-9.002;2023-05-22T04:22:12;100173.22;;;15.88;100.00
50434;BME280;36361;38.954;-9.002;2023-05-22T04:23:13;100168.41;;;16.00;100.00
50434;BME280;36361;38.954;-9.002;2023-05-22T04:24:13;100175.53;;;16.01;100.00
50434;BME280;36361;38.954;-9.002;2023-05-22T04:25:14;100170.59;;;16.03;100.00
50434;BME280;36361;38.954;-9.002;2023-05-22T04:26:15;100173.16;;;15.78;100.00
50434;BME280;36361;38.954;-9.002;2023-05-22T04:27:17;100174.28;;;15.82;100.00
50434;BME280;36361;38.954;-9.002;2023-05-22T04:28:24;100170.97;;;15.80;100.00
50434;BME280;36361;38.954;-9.002;2023-05-22T04:29:26;100178.63;;;15.78;100.00
50434;BME280;36361;38.954;-9.002;2023-05-22T04:30:30;100165.78;;;15.83;100.00
50434;BME280;36361;38.954;-9.002;2023-05-22T04:31:33;100166.00;;;15.77;100.00
50434;BME280;36361;38.954;-9.002;2023-05-22T04:32:33;100164.66;;;15.79;100.00
50434;BME280;36361;38.954;-9.002;2023-05-22T04:33:35;100172.13;;;15.89;100.00
50434;BME280;36361;38.954;-9.002;2023-05-22T04:34:37;100168.53;;;15.83;100.00
50434;BME280;36361;38.954;-9.002;2023-05-22T04:35:38;100171.03;;;15.85;100.00
50434;BME280;36361;38.954;-9.002;2023-05-22T04:36:42;100170.75;;;15.86;100.00
50434;BME280;36361;38.954;-9.002;2023-05-22T04:37:44;100165.44;;;15.75;100.00
50434;BME280;36361;38.954;-9.002;2023-05-22T04:38:45;100178.09;;;15.81;100.00
50434;BME280;36361;38.954;-9.002;2023-05-22T04:39:46;100175.94;;;15.83;100.00
50434;BME280;36361;38.954;-9.002;2023-05-22T04:40:47;100183.16;;;15.94;100.00
50434;BME280;36361;38.954;-9.002;2023-05-22T04:41:49;100176.31;;;15.97;100.00
50434;BME280;36361;38.954;-9.002;2023-05-22T04:42:56;100177.41;;;15.96;100.00
50434;BME280;36361;38.954;-9.002;2023-05-22T04:44:02;100191.19;;;16.06;100.00
50434;BME280;36361;38.954;-9.002;2023-05-22T04:45:07;100180.00;;;16.12;100.00
50434;BME280;36361;38.954;-9.002;2023-05-22T04:46:09;100185.91;;;15.94;100.00
50434;BME280;36361;38.954;-9.002;2023-05-22T04:47:11;100183.78;;;16.01;100.00
50434;BME280;36361;38.954;-9.002;2023-05-22T04:48:14;100186.44;;;15.91;100.00
50434;BME280;36361;38.954;-9.002;2023-05-22T04:49:15;100193.59;;;15.92;100.00
50434;BME280;36361;38.954;-9.002;2023-05-22T04:50:16;100190.50;;;15.88;100.00
50434;BME280;36361;38.954;-9.002;2023-05-22T04:51:18;100194.34;;;15.87;100.00
50434;BME280;36361;38.954;-9.002;2023-05-22T04:52:19;100190.69;;;15.77;100.00
50434;BME280;36361;38.954;-9.002;2023-05-22T04:53:21;100189.06;;;15.76;100.00
50434;BME280;36361;38.954;-9.002;2023-05-22T04:54:25;100187.97;;;15.77;100.00
50434;BME280;36361;38.954;-9.002;2023-05-22T04:55:26;100204.34;;;15.67;100.00
50434;BME280;36361;38.954;-9.002;2023-05-22T04:56:27;100194.22;;;15.72;100.00
50434;BME280;36361;38.954;-9.002;2023-05-22T04:57:29;100192.81;;;15.70;100.00
50434;BME280;36361;38.954;-9.002;2023-05-22T04:58:30;100196.66;;;15.69;100.00
50434;BME280;36361;38.954;-9.002;2023-05-22T04:59:35;100202.16;;;15.69;100.00
50434;BME280;36361;38.954;-9.002;2023-05-22T05:00:39;100203.19;;;15.62;100.00
50434;BME280;36361;38.954;-9.002;2023-05-22T05:01:41;100209.00;;;15.66;100.00
50434;BME280;36361;38.954;-9.002;2023-05-22T05:02:44;100209.06;;;15.49;100.00
50434;BME280;36361;38.954;-9.002;2023-05-22T05:03:45;100213.59;;;15.60;100.00
50434;BME280;36361;38.954;-9.002;2023-05-22T05:04:46;100213.13;;;15.69;100.00
50434;BME280;36361;38.954;-9.002;2023-05-22T05:05:48;100213.75;;;15.54;100.00
50434;BME280;36361;38.954;-9.002;2023-05-22T05:06:49;100211.84;;;15.54;100.00
50434;BME280;36361;38.954;-9.002;2023-05-22T05:07:52;100213.31;;;15.62;100.00
50434;BME280;36361;38.954;-9.002;2023-05-22T05:08:53;100210.94;;;15.71;100.00
50434;BME280;36361;38.954;-9.002;2023-05-22T05:09:54;100207.09;;;15.72;100.00
50434;BME280;36361;38.954;-9.002;2023-05-22T05:10:55;100210.53;;;15.57;100.00
50434;BME280;36361;38.954;-9.002;2023-05-22T05:11:56;100217.97;;;15.61;100.00
50434;BME280;36361;38.954;-9.002;2023-05-22T05:12:57;100207.63;;;15.69;100.00
50434;BME280;36361;38.954;-9.002;2023-05-22T05:13:58;100214.94;;;15.90;100.00
50434;BME280;36361;38.954;-9.002;2023-05-22T05:14:59;100223.22;;;15.63;100.00
50434;BME280;36361;38.954;-9.002;2023-05-22T05:16:00;100226.66;;;15.53;100.00
50434;BME280;36361;38.954;-9.002;2023-05-22T05:17:01;100224.78;;;15.59;100.00
50434;BME280;36361;38.954;-9.002;2023-05-22T05:18:04;100223.81;;;15.65;100.00
50434;BME280;36361;38.954;-9.002;2023-05-22T05:19:05;100225.25;;;15.73;100.00
50434;BME280;36361;38.954;-9.002;2023-05-22T05:20:07;100228.03;;;15.78;100.00
50434;BME280;36361;38.954;-9.002;2023-05-22T05:21:07;100225.56;;;15.81;100.00
50434;BME280;36361;38.954;-9.002;2023-05-22T05:22:08;100229.06;;;15.72;100.00
50434;BME280;36361;38.954;-9.002;2023-05-22T05:23:09;100229.84;;;15.67;100.00
50434;BME280;36361;38.954;-9.002;2023-05-22T05:24:11;100237.91;;;15.79;100.00
50434;BME280;36361;38.954;-9.002;2023-05-22T05:25:12;100231.94;;;15.87;100.00
50434;BME280;36361;38.954;-9.002;2023-05-22T05:26:13;100237.88;;;15.74;100.00
50434;BME280;36361;38.954;-9.002;2023-05-22T05:27:14;100236.22;;;15.73;100.00
50434;BME280;36361;38.954;-9.002;2023-05-22T05:28:15;100227.94;;;15.68;100.00
50434;BME280;36361;38.954;-9.002;2023-05-22T05:29:16;100237.06;;;15.78;100.00
50434;BME280;36361;38.954;-9.002;2023-05-22T05:30:40;100234.66;;;15.82;100.00
50434;BME280;36361;38.954;-9.002;2023-05-22T05:32:01;100237.88;;;16.06;100.00
50434;BME280;36361;38.954;-9.002;2023-05-22T05:33:22;100235.25;;;15.89;100.00
50434;BME280;36361;38.954;-9.002;2023-05-22T05:34:33;100243.00;;;15.97;100.00